CheckWX is a tool to help pilots better visualize weather data.  It is not intended as a substitute for an official pre-flight weather briefing.

18:30:51 UTC

FAMM METAR
Mmabatho International Airport
Mafeking, South Africa
Current

31 mins ago

FAMM 221800Z 35007KT 9999 FEW040CB 24/13 Q1018 NOSIG
Observed
Feb-22 @ 18:00 UTC
Wind
  • 350° at 7 KTS
Visibility
10,000+ meters
Flight Rules
VFR
Cloud Levels
  • Few at 4,000' AGL
Temperature
24°C / 75°F
Dewpoint
13°C / 55°F
Humidity
50%
Altimeter
30.06" Hg
Pressure
1017.92 hPa
Previous

2 hours ago

FAMM 221700Z 35007KT 9999 FEW040CB 26/12 Q1018 NOSIG
Observed
Feb-22 @ 17:00 UTC
Wind
  • 350° at 7 KTS
Visibility
10,000+ meters
Flight Rules
VFR
Cloud Levels
  • Few at 4,000' AGL
Temperature
26°C / 79°F
Dewpoint
12°C / 54°F
Humidity
42%
Altimeter
30.06" Hg
Pressure
1017.92 hPa
Previous

3 hours ago

FAMM 221600Z 35014KT 9999 FEW040CB 30/13 Q1018 NOSIG
Observed
Feb-22 @ 16:00 UTC
Wind
  • 350° at 14 KTS
Visibility
10,000+ meters
Flight Rules
VFR
Cloud Levels
  • Few at 4,000' AGL
Temperature
30°C / 86°F
Dewpoint
13°C / 55°F
Humidity
35%
Altimeter
30.06" Hg
Pressure
1017.92 hPa